Home > Products > Valid Products > TAF

000
FTUS41 KPBZ 211600 AAB
TAFZZV
TAF AMD
KZZV 211608Z 2116/2212 23012G18KT P6SM VCSH SCT025 BKN030
     FM211800 28014G24KT P6SM SCT035
     FM212200 30007G15KT P6SM BKN050=



000
FTUS41 KPBZ 211600 AAC
TAFHLG
TAF AMD
KHLG 211606Z 2116/2212 20010G18KT P6SM SCT015 BKN025
     FM211700 23010G20KT P6SM SCT025 BKN040
     FM212000 27010G20KT P6SM VCSH SCT035 BKN050
      TEMPO 2120/2122 28015G25KT -TSRA BKN035CB
     FM220100 30010KT P6SM BKN050=



000
FTUS41 KPBZ 211600 AAD
TAFPIT
TAF AMD
KPIT 211605Z 2116/2218 20010G15KT P6SM BKN025
     FM211700 22010G18KT P6SM SCT025 BKN040
     FM212000 27010G20KT P6SM SCT035 BKN050
      TEMPO 2121/2123 28015G25KT -TSRA BKN035CB
     FM220100 30010KT P6SM BKN050=



000
FTUS41 KPBZ 211600 AAD
TAFAGC
TAF AMD
KAGC 211605Z 2116/2212 19010G15KT P6SM BKN015 BKN025
     FM211700 21010G18KT P6SM SCT025 BKN040
     FM212000 27010G20KT P6SM SCT035 BKN050
      TEMPO 2121/2123 28015G25KT -TSRA BKN035CB
     FM220100 30010KT P6SM BKN050=



000
FTUS41 KPBZ 211500 AAB
TAFLBE
TAF AMD
KLBE 211514Z 2115/2212 23010G16KT P6SM BKN020
     FM211800 23012G20KT P6SM SCT035 BKN050
     FM212200 27010G20KT P6SM VCSH SCT035 BKN050
      TEMPO 2122/2124 28015G25KT -TSRA BKN035CB
     FM220200 30010KT P6SM BKN050=



000
FTUS41 KPBZ 211500 AAB
TAFDUJ
TAF AMD
KDUJ 211513Z 2115/2212 21010G15KT P6SM BKN015
     FM211700 23010G18KT P6SM SCT025 BKN050
     FM212000 25010G20KT P6SM SCT035 BKN050
      TEMPO 2122/2124 28015G25KT -TSRA BKN035CB
     FM220100 30010KT P6SM BKN050=



000
FTUS41 KPBZ 211500 AAB
TAFMGW
TAF AMD
KMGW 211511Z 2115/2212 19004KT P6SM BKN025 BKN070
     FM211700 21008G15KT P6SM SCT035 BKN050
     FM212000 25010G15KT P6SM SCT035 BKN050
      TEMPO 2122/2124 27015G25KT -TSRA BKN035CB
     FM220100 30010KT P6SM BKN050=



000
FTUS41 KPBZ 211500 AAB
TAFHLG
TAF AMD
KHLG 211507Z 2115/2212 20010G18KT P6SM BKN015 BKN025
     FM211600 23010G20KT P6SM SCT035 BKN050
     FM212000 27010G20KT P6SM VCSH SCT035 BKN050
      TEMPO 2120/2122 28015G25KT -TSRA BKN035CB
     FM220100 30010KT P6SM BKN050=



000
FTUS41 KPBZ 211400 AAC
TAFPIT
TAF AMD
KPIT 211459Z 2115/2218 20010G15KT P6SM BKN015 BKN025
     FM211600 22010G18KT P6SM SCT035 BKN060
     FM212000 27010G20KT P6SM SCT035 BKN050
      TEMPO 2121/2123 28015G25KT -TSRA BKN035CB
     FM220100 30010KT P6SM BKN050=



000
FTUS41 KPBZ 211400 AAC
TAFAGC
TAF AMD
KAGC 211459Z 2115/2212 19010G15KT P6SM BKN015 BKN025
     FM211600 21010G18KT P6SM SCT035 BKN070
     FM212000 27010G20KT P6SM SCT035 BKN050
      TEMPO 2121/2123 28015G25KT -TSRA BKN035CB
     FM220100 30010KT P6SM BKN050=



000
FTUS41 KPBZ 211300 AAA
TAFDUJ
TAF AMD
KDUJ 211338Z 2114/2212 21010G15KT 6SM -SHRA BKN030
     FM211430 21010G15KT P6SM SCT035 BKN050
     FM212000 26010G15KT P6SM SCT035 BKN050
      TEMPO 2122/2124 28015G25KT -TSRA BKN035CB
     FM220100 30010KT P6SM BKN050=



000
FTUS41 KPBZ 211300 AAA
TAFHLG
TAF AMD
KHLG 211335Z 2114/2212 20010G18KT P6SM VCSH BKN025 BKN050
     FM211600 23010G20KT P6SM SCT035 BKN050
     FM212000 27010G20KT P6SM VCSH SCT035 BKN050
      TEMPO 2120/2122 28015G25KT -TSRA BKN035CB
     FM220100 30010KT P6SM BKN050=



000
FTUS41 KPBZ 211300 AAA
TAFLBE
TAF AMD
KLBE 211334Z 2114/2212 22012G22KT 5SM -SHRA BKN035
     FM211415 23010G16KT P6SM SCT035 BKN050
     FM212200 27010G20KT P6SM VCSH SCT035 BKN050
      TEMPO 2122/2124 28015G25KT -TSRA BKN035CB
     FM220200 30010KT P6SM BKN050=



000
FTUS41 KPBZ 211300 AAB
TAFPIT
TAF AMD
KPIT 211332Z 2114/2218 20010G15KT P6SM SCT035 SCT070
     FM211600 24010G18KT P6SM SCT035 BKN050
     FM212000 27010G20KT P6SM SCT035 BKN050
      TEMPO 2121/2123 28015G25KT -TSRA BKN035CB
     FM220100 30010KT P6SM BKN050=



000
FTUS41 KPBZ 211300 AAA
TAFBVI
TAF AMD
KBVI 211332Z 2114/2212 20010G15KT P6SM BKN025
     FM211600 24010G18KT P6SM SCT035 BKN050
     FM212000 27010G20KT P6SM SCT035 BKN050
      TEMPO 2121/2123 28015G25KT -TSRA BKN035CB
     FM220100 30010KT P6SM BKN050=



000
FTUS41 KPBZ 211300 AAB
TAFAGC
TAF AMD
KAGC 211331Z 2114/2212 19010G15KT P6SM SCT050 BKN100
     FM211600 23010G18KT P6SM SCT035 BKN050
     FM212000 29010G20KT P6SM SCT035 BKN050
      TEMPO 2121/2123 27015G25KT -TSRA BKN035CB
     FM220100 30010KT P6SM BKN050=



000
FTUS41 KPBZ 211300 AAA
TAFZZV
TAF AMD
KZZV 211328Z 2113/2212 20008KT P6SM BKN025
     FM211600 20010G18KT P6SM BKN035
     FM212000 23010G20KT P6SM VCSH BKN040
     FM212200 30007G15KT P6SM BKN050=



000
FTUS41 KPBZ 211300 AAA
TAFMGW
TAF AMD
KMGW 211325Z 2113/2212 19004KT P6SM FEW035 BKN050
      TEMPO 2113/2114 6SM -SHRA BKN035
     FM212000 29010G15KT P6SM SCT035 BKN050
      TEMPO 2122/2124 27015G25KT -TSRA BKN035CB
     FM220100 30010KT P6SM BKN050=



000
FTUS41 KPBZ 211200 AAA
TAFAGC
TAF AMD
KAGC 211248Z 2113/2212 19008KT P6SM VCSH SCT050 BKN100
      TEMPO 2113/2114 4SM -SHRA BKN035
     FM211600 23010G15KT P6SM SCT035 BKN050
     FM212000 29010G15KT P6SM SCT035 BKN050
      TEMPO 2121/2123 27015G25KT -TSRA BKN035CB
     FM220100 30010KT P6SM BKN050=



000
FTUS41 KPBZ 211200 AAA
TAFPIT
TAF AMD
KPIT 211248Z 2113/2218 21012G25KT 4SM -SHRA BKN035
     FM211315 19010KT P6SM VCSH SCT035 SCT070
     FM211600 24010G15KT P6SM SCT035 BKN050
     FM212000 29010G15KT P6SM SCT035 BKN050
      TEMPO 2121/2123 27015G25KT -TSRA BKN035CB
     FM220100 30010KT P6SM BKN050=



000
FTUS41 KPBZ 211100 RRA
TAFDUJ
TAF
KDUJ 211145Z 2112/2212 21006KT P6SM FEW035 BKN050
      TEMPO 2112/2113 21010G20KT 5SM -SHRA BKN030
     FM211300 23010G15KT P6SM SCT035 BKN050
     FM212000 29010G15KT P6SM SCT035 BKN050
      TEMPO 2122/2124 27015G25KT -TSRA BKN035CB
     FM220100 30010KT P6SM BKN050=



000
FTUS41 KPBZ 211100 RRA
TAFLBE
TAF
KLBE 211145Z 2112/2212 20005KT P6SM FEW035 SCT050
     FM211500 22012G22KT 5SM -SHRA BKN035
     FM211600 23010G15KT P6SM SCT035 BKN050
     FM212200 29010G15KT P6SM SCT035 BKN050
      TEMPO 2122/2124 27015G25KT -TSRA BKN035CB
     FM220200 30010KT P6SM BKN050=



000
FTUS41 KPBZ 211100 RRA
TAFHLG
TAF
KHLG 211145Z 2112/2212 19008KT P6SM VCSH FEW035 BKN050
      TEMPO 2112/2114 22012G20KT 5SM -SHRA BKN035
     FM211400 23010G15KT P6SM SCT035 BKN050
     FM212000 29010G15KT P6SM SCT035 BKN050
      TEMPO 2120/2122 27015G25KT -TSRA BKN035CB
     FM220100 30010KT P6SM BKN050=



000
FTUS41 KPBZ 211100 RRA
TAFAGC
TAF
KAGC 211145Z 2112/2212 19008KT P6SM SCT050 BKN100
     FM211600 23010G15KT P6SM SCT035 BKN050
     FM212000 29010G15KT P6SM SCT035 BKN050
      TEMPO 2121/2123 27015G25KT -TSRA BKN035CB
     FM220100 30010KT P6SM BKN050=



000
FTUS41 KPBZ 211100 RRA
TAFMGW
TAF
KMGW 211145Z 2112/2212 19004KT P6SM FEW035 BKN050
     FM212000 29010G15KT P6SM SCT035 BKN050
      TEMPO 2122/2124 27015G25KT -TSRA BKN035CB
     FM220100 30010KT P6SM BKN050=



000
FTUS41 KPBZ 211100 RRA
TAFBVI
TAF
KBVI 211145Z 2112/2212 20010KT P6SM VCSH BKN060
     FM211600 24010G15KT P6SM SCT035 BKN050
     FM212000 29010G15KT P6SM SCT035 BKN050
      TEMPO 2121/2123 27015G25KT -TSRA BKN035CB
     FM220100 30010KT P6SM BKN050=



000
FTUS41 KPBZ 211100 RRA
TAFZZV
TAF
KZZV 211145Z 2112/2212 20008KT P6SM FEW040
     FM212000 23010G20KT P6SM VCSH BKN040 PROB30 2121/2122
      27015G25KT -TSRA BKN035CB
     FM212200 30007G15KT P6SM BKN050=



000
FTUS41 KPBZ 211100 RRA
TAFPIT
TAF
KPIT 211145Z 2112/2218 19008KT P6SM VCSH SCT050 BKN100
     FM211600 24010G15KT P6SM SCT035 BKN050
     FM212000 29010G15KT P6SM SCT035 BKN050
      TEMPO 2121/2123 27015G25KT -TSRA BKN035CB
     FM220100 30010KT P6SM BKN050=



000
FTUS41 KPBZ 210900 AAA
TAFLBE
TAF AMD
KLBE 210908Z 2109/2206 21005KT P6SM SCT035 BKN060
     FM211400 22012G22KT 4SM -SHRA BKN035
     FM211500 23010G15KT P6SM SCT035 BKN050
     FM212200 29010G15KT P6SM SCT035 BKN050 PROB30 2123/2201
      27015G25KT -TSRA BKN035CB=



000
FTUS41 KPBZ 210900 AAA
TAFHLG
TAF AMD
KHLG 210908Z 2109/2206 20011KT P6SM FEW070
     FM211300 22012G22KT 4SM -SHRA BKN035
     FM211400 23010G15KT P6SM SCT035 BKN050
     FM212000 29010G15KT P6SM SCT035 BKN050 PROB30 2122/2124
      27015G25KT -TSRA BKN035CB
     FM220100 30010KT P6SM BKN050=



000
FTUS41 KPBZ 210900 AAA
TAFMGW
TAF AMD
KMGW 210908Z 2109/2206 21004KT P6SM BKN040 BKN060
     FM211200 23010G15KT 4SM -SHRA BKN035
     FM212000 29010G15KT P6SM SCT035 BKN050 PROB30 2122/2124
      27015G25KT -TSRA BKN035CB
     FM220100 30010KT P6SM BKN050=



000
FTUS41 KPBZ 210900 AAA
TAFZZV
TAF AMD
KZZV 210908Z 2109/2206 20006KT P6SM SKC
     FM211000 25012G22KT 4SM -SHRA OVC030
     FM211100 29010G15KT P6SM SCT035 BKN050 PROB30 2122/2123
      27015G25KT -TSRA BKN035CB
     FM220000 30007KT P6SM BKN050=



000
FTUS41 KPBZ 210900 AAA
TAFBVI
TAF AMD
KBVI 210908Z 2109/2206 19008KT P6SM VCSH OVC060
     FM211200 22012G22KT 4SM -SHRA BKN035
     FM211300 23010G15KT P6SM SCT035 BKN050
     FM212000 29010G15KT P6SM SCT035 BKN050 PROB30 2122/2124
      27015G25KT -TSRA BKN035CB
     FM220100 30010KT P6SM BKN050=



000
FTUS41 KPBZ 210900 AAA
TAFAGC
TAF AMD
KAGC 210908Z 2109/2206 18009KT P6SM VCSH OVC070
     FM211200 22012G22KT 4SM -SHRA BKN035
     FM211300 23010G15KT P6SM SCT035 BKN050
     FM212000 29010G15KT P6SM SCT035 BKN050 PROB30 2122/2124
      27015G25KT -TSRA BKN035CB
     FM220100 30010KT P6SM BKN050=



000
FTUS41 KPBZ 210900 AAA
TAFPIT
TAF AMD
KPIT 210908Z 2109/2212 21011G17KT P6SM VCSH OVC070
     FM211200 22012G22KT 4SM -SHRA BKN035
     FM211300 23010G15KT P6SM SCT035 BKN050
     FM212000 29010G15KT P6SM SCT035 BKN050 PROB30 2122/2124
      27015G25KT -TSRA BKN035CB
     FM220100 30010KT P6SM BKN050=



000
FTUS41 KPBZ 210900 AAA
TAFDUJ
TAF AMD
KDUJ 210908Z 2109/2206 18005KT P6SM BKN027 OVC035
     FM211200 22012G22KT 4SM -SHRA BKN035
     FM211300 23010G15KT P6SM SCT035 BKN050
     FM212000 29010G15KT P6SM SCT035 BKN050 PROB30 2122/2123
      27015G25KT -TSRA BKN035CB
     FM220100 30010KT P6SM BKN050=



000
FTUS41 KPBZ 210500
TAFZZV
TAF
KZZV 210540Z 2106/2206 20008KT P6SM SCT040
     FM210700 21007KT P6SM VCSH BKN015
     FM211400 25012G22KT 4SM -SHRA OVC030
     FM212200 28010KT P6SM BKN035=



000
FTUS41 KPBZ 210500
TAFDUJ
TAF
KDUJ 210540Z 2106/2206 18008KT P6SM SCT040
     FM210900 20007KT P6SM VCSH BKN008
     FM211400 24012G22KT 4SM -SHRA OVC020
     FM212200 28010KT P6SM BKN025=



000
FTUS41 KPBZ 210500
TAFPIT
TAF
KPIT 210540Z 2106/2212 19006KT P6SM SCT040
     FM210900 20007KT P6SM VCSH BKN015
     FM211400 24012G22KT 4SM -SHRA OVC025
     FM212200 28010KT P6SM BKN035=



000
FTUS41 KPBZ 210500
TAFHLG
TAF
KHLG 210540Z 2106/2206 18010KT P6SM SCT040
     FM210900 20007KT P6SM VCSH BKN015
     FM211400 24012G22KT 4SM -SHRA OVC025
     FM212200 28010KT P6SM BKN035=



000
FTUS41 KPBZ 210500
TAFAGC
TAF
KAGC 210540Z 2106/2206 18008KT P6SM SCT035
     FM210900 20007KT P6SM VCSH BKN015
     FM211400 24012G22KT 4SM -SHRA OVC025
     FM212200 28010KT P6SM BKN035=



000
FTUS41 KPBZ 210500
TAFMGW
TAF
KMGW 210540Z 2106/2206 18006KT P6SM SCT050
     FM211100 20007KT P6SM VCSH BKN015
     FM211600 24012G22KT 4SM -SHRA OVC030
     FM212300 28010KT P6SM BKN035=



000
FTUS41 KPBZ 210500
TAFLBE
TAF
KLBE 210540Z 2106/2206 18007KT P6SM SCT040
     FM211100 20007KT P6SM VCSH BKN015
     FM211600 24012G22KT 4SM -SHRA OVC025
     FM212300 28010KT P6SM BKN035=



000
FTUS41 KPBZ 210500
TAFBVI
TAF
KBVI 210540Z 2106/2206 19008KT P6SM SCT040
     FM210900 20007KT P6SM VCSH BKN011
     FM211400 24012G22KT 4SM -SHRA OVC025
     FM212200 28010KT P6SM BKN035
      AMD NOT SKED=



000
FTUS41 KPBZ 210200 AAA
TAFPIT
TAF AMD
KPIT 210228Z 2102/2206 19006KT P6SM SCT040
     FM210900 20007KT P6SM VCSH BKN015
     FM211400 24012G22KT 4SM -SHRA OVC025
     FM212200 28010KT P6SM BKN035=



000
FTUS41 KPBZ 202300
TAFHLG
TAF
KHLG 202323Z 2100/2124 18010KT P6SM SCT040
     FM210900 20007KT P6SM VCSH BKN015
     FM211400 24012G22KT 4SM -SHRA OVC025
     FM212200 28010KT P6SM BKN035=



000
FTUS41 KPBZ 202300
TAFMGW
TAF
KMGW 202323Z 2100/2124 18006KT P6SM SCT050
     FM211100 20007KT P6SM VCSH BKN015
     FM211600 24012G22KT 4SM -SHRA OVC030
     FM212300 28010KT P6SM BKN035=



000
FTUS41 KPBZ 202300
TAFLBE
TAF
KLBE 202323Z 2100/2124 18007KT P6SM SCT040
     FM211100 20007KT P6SM VCSH BKN015
     FM211600 24012G22KT 4SM -SHRA OVC025
     FM212300 28010KT P6SM BKN035=



000
FTUS41 KPBZ 202300
TAFZZV
TAF
KZZV 202323Z 2100/2124 20008KT P6SM SCT040
     FM210700 21007KT P6SM VCSH BKN015
     FM211400 25012G22KT 4SM -SHRA OVC030
     FM212200 28010KT P6SM BKN035=



000
FTUS41 KPBZ 202300
TAFPIT
TAF
KPIT 202323Z 2100/2206 19008KT P6SM SCT040
     FM210900 20007KT P6SM VCSH BKN015
     FM211400 24012G22KT 4SM -SHRA OVC025
     FM212200 28010KT P6SM BKN035=



000
FTUS41 KPBZ 202300
TAFDUJ
TAF
KDUJ 202323Z 2100/2124 18008KT P6SM SCT040
     FM210900 20007KT P6SM VCSH BKN008
     FM211400 24012G22KT 4SM -SHRA OVC020
     FM212200 28010KT P6SM BKN025=



000
FTUS41 KPBZ 202300
TAFAGC
TAF
KAGC 202323Z 2100/2124 18008KT P6SM SCT035
     FM210900 20007KT P6SM VCSH BKN015
     FM211400 24012G22KT 4SM -SHRA OVC025
     FM212200 28010KT P6SM BKN035=



000
FTUS41 KPBZ 202300
TAFBVI
TAF
KBVI 202323Z 2100/2124 19008KT P6SM SCT040
     FM210900 20007KT P6SM VCSH BKN011
     FM211400 24012G22KT 4SM -SHRA OVC025
     FM212200 28010KT P6SM BKN035
      AMD NOT SKED 2101/2111=



000
FTUS41 KPBZ 202100 AAB
TAFDUJ
TAF AMD
KDUJ 202100Z 2021/2118 22010KT P6SM SCT040 BKN250
     FM210000 17008KT P6SM BKN010
     FM211300 19010KT P6SM -SHRA OVC015
     FM211700 23010KT P6SM BKN025=



000
FTUS41 KPBZ 202000 AAA
TAFHLG
TAF AMD
KHLG 202058Z 2021/2118 20012G20KT P6SM SCT035
     FM210900 20007KT P6SM BKN015
     FM211200 21006KT P6SM VCSH OVC025=



000
FTUS41 KPBZ 202000 AAA
TAFPIT
TAF AMD
KPIT 202057Z 2021/2124 20010KT P6SM SCT035
     FM210900 20007KT P6SM BKN015
     FM211200 21006KT P6SM VCSH OVC025
     FM211800 25011KT P6SM BKN045=



000
FTUS41 KPBZ 202000 AAA
TAFBVI
TAF AMD
KBVI 202057Z 2021/2118 20010KT P6SM SCT035
     FM210900 20007KT P6SM BKN011
     FM211200 21006KT P6SM VCSH OVC025=



000
FTUS41 KPBZ 202000 AAB
TAFAGC
TAF AMD
KAGC 202057Z 2021/2118 20010KT P6SM SCT035
     FM210900 20007KT P6SM BKN015
     FM211200 21006KT P6SM VCSH OVC025=



000
FTUS41 KPBZ 201800 AAA
TAFAGC
TAF AMD
KAGC 201835Z 2019/2118 20011KT P6SM SCT040 BKN250
     FM210100 20006KT P6SM BKN250
     FM211300 24009KT P6SM VCSH OVC035=



000
FTUS41 KPBZ 201800 AAA
TAFDUJ
TAF AMD
KDUJ 201835Z 2019/2118 22010KT P6SM SCT040 BKN250
     FM210000 17008KT P6SM BKN250
     FM211300 19010KT P6SM -SHRA OVC025
     FM211700 23010KT P6SM BKN025=



000
FTUS41 KPBZ 201700
TAFHLG
TAF
KHLG 201722Z 2018/2118 21011G21KT P6SM SCT050 BKN250
     FM210100 20005KT P6SM BKN250
     FM211200 22010KT P6SM VCSH OVC030
     FM211700 25011KT P6SM BKN045=



000
FTUS41 KPBZ 201700
TAFLBE
TAF
KLBE 201722Z 2018/2118 21010G20KT P6SM SCT050 BKN250
     FM210100 21006KT P6SM BKN250
     FM211400 22010KT P6SM VCSH BKN050=



000
FTUS41 KPBZ 201700
TAFPIT
TAF
KPIT 201722Z 2018/2124 22010KT P6SM SCT045 BKN250
     FM210100 20005KT P6SM BKN250
     FM211200 21006KT P6SM VCSH OVC035
     FM211800 25011KT P6SM BKN045=



000
FTUS41 KPBZ 201700
TAFMGW
TAF
KMGW 201722Z 2018/2118 20008KT P6SM SCT050 BKN250
     FM210100 19005KT P6SM BKN250
     FM211400 21008KT P6SM VCSH OVC030=



000
FTUS41 KPBZ 201700
TAFAGC
TAF
KAGC 201722Z 2018/2118 21012G20KT P6SM SCT040 BKN250
     FM210100 20006KT P6SM BKN250
     FM211300 24009KT P6SM VCSH OVC035=



000
FTUS41 KPBZ 201700
TAFBVI
TAF
KBVI 201722Z 2018/2118 22010KT P6SM SCT050 BKN250
     FM210100 21005KT P6SM BKN250
     FM211200 22006KT P6SM VCSH OVC035=



000
FTUS41 KPBZ 201700
TAFZZV
TAF
KZZV 201722Z 2018/2118 20011KT P6SM SCT040
     FM210100 19005KT P6SM BKN250
     FM211300 23008KT P6SM VCSH OVC025
     FM211600 26009KT P6SM BKN050=



000
FTUS41 KPBZ 201700
TAFDUJ
TAF
KDUJ 201722Z 2018/2118 20010G19KT P6SM SCT040 BKN250
     FM210000 17008KT P6SM BKN250
     FM211300 19010KT P6SM -SHRA OVC025
     FM211700 23010KT P6SM BKN025=



000
FTUS41 KPBZ 201400 AAA
TAFPIT
TAF AMD
KPIT 201455Z 2015/2118 21012G20KT P6SM SCT045 BKN250
     FM202200 18005KT P6SM BKN100 BKN250
     FM211000 21006KT P6SM -SHRA OVC030=



000
FTUS41 KPBZ 201100 RRA
TAFAGC
TAF
KAGC 201153Z 2012/2112 15007KT P6SM BKN050
     FM201500 18010G20KT P6SM BKN040
     FM202200 18005KT P6SM BKN100 BKN250
     FM211000 21006KT P6SM -SHRA OVC030=



000
FTUS41 KPBZ 201100 RRA
TAFZZV
TAF
KZZV 201153Z 2012/2112 14005KT P6SM SCT060
     FM201500 20009G18KT P6SM SCT040=



000
FTUS41 KPBZ 201100 RRA
TAFDUJ
TAF
KDUJ 201153Z 2012/2112 15008KT P6SM BKN040
     FM201500 18010G20KT P6SM BKN040
     FM210000 17010KT P6SM BKN100 BKN250
     FM210900 19010KT P6SM -SHRA BKN030=



000
FTUS41 KPBZ 201100 RRA
TAFMGW
TAF
KMGW 201153Z 2012/2112 15006KT P6SM SCT050
     FM201500 18010G20KT P6SM BKN040
     FM210600 18004KT P6SM BKN040 PROB30 2110/2112 P6SM -RA BKN040=



000
FTUS41 KPBZ 201100 RRA
TAFLBE
TAF
KLBE 201153Z 2012/2112 15008KT P6SM BKN045
     FM201500 18010G20KT P6SM BKN040
     FM202200 18005KT P6SM BKN100 BKN250
     FM211000 21006KT P6SM -SHRA OVC050 PROB30 2110/2112 P6SM -SHRA
      BKN030=



000
FTUS41 KPBZ 201100 RRA
TAFBVI
TAF
KBVI 201153Z 2012/2112 15006KT P6SM BKN050
     FM201500 18010G20KT P6SM BKN040
     FM202200 18005KT P6SM BKN100 BKN250
     FM211000 21006KT P6SM -SHRA OVC030=



000
FTUS41 KPBZ 201100 RRA
TAFHLG
TAF
KHLG 201153Z 2012/2112 12008KT P6SM BKN045
     FM201500 18010G20KT P6SM BKN040
     FM202300 18005KT P6SM BKN100 BKN250
     FM210800 21006KT P6SM -SHRA OVC030=



000
FTUS41 KPBZ 201100 RRA
TAFPIT
TAF
KPIT 201153Z 2012/2118 15008KT P6SM SCT050
     FM201500 19010G20KT P6SM BKN040 BKN250
     FM202200 18005KT P6SM BKN100 BKN250
     FM211000 21006KT P6SM -SHRA OVC030=



000
FTUS41 KPBZ 200900 AAA
TAFDUJ
TAF AMD
KDUJ 200903Z 2009/2106 15008KT P6SM BKN040
     FM201500 18010G20KT P6SM BKN040=



000
FTUS41 KPBZ 200900 AAA
TAFPIT
TAF AMD
KPIT 200903Z 2009/2112 15008KT P6SM SCT050
     FM201500 19010G20KT P6SM BKN040=



000
FTUS41 KPBZ 200700 AAA
TAFLBE
TAF AMD
KLBE 200714Z 2007/2106 15008KT P6SM BKN045
     FM201500 18010G20KT P6SM BKN040=



000
FTUS41 KPBZ 200500
TAFLBE
TAF
KLBE 200540Z 2006/2106 14008G18KT P6SM BKN045
     FM201500 18010G20KT P6SM BKN040=



000
FTUS41 KPBZ 200500
TAFHLG
TAF
KHLG 200540Z 2006/2106 12008KT P6SM BKN045
     FM201500 18010G20KT P6SM BKN040=



000
FTUS41 KPBZ 200500
TAFDUJ
TAF
KDUJ 200540Z 2006/2106 15008KT P6SM BKN045
     FM200900 17006KT P6SM BKN012
     FM201500 18010G20KT P6SM BKN040=



000
FTUS41 KPBZ 200500
TAFPIT
TAF
KPIT 200540Z 2006/2112 15008KT P6SM SCT050
     FM201500 19010G20KT P6SM BKN040=



000
FTUS41 KPBZ 200500
TAFZZV
TAF
KZZV 200540Z 2006/2106 14005KT P6SM SCT060
     FM201500 20009G18KT P6SM SCT040=



000
FTUS41 KPBZ 200500
TAFBVI
TAF
KBVI 200540Z 2006/2106 15006KT P6SM BKN050
     FM201500 18010G20KT P6SM BKN040
      AMD NOT SKED=



000
FTUS41 KPBZ 200500
TAFAGC
TAF
KAGC 200540Z 2006/2106 15007KT P6SM BKN050
     FM201500 18010G20KT P6SM BKN040=



000
FTUS41 KPBZ 200500
TAFMGW
TAF
KMGW 200540Z 2006/2106 15006KT P6SM SCT050
     FM201500 18010G20KT P6SM BKN040=



000
FTUS41 KPBZ 200200 AAB
TAFPIT
TAF AMD
KPIT 200251Z 2003/2106 15008KT P6SM SCT050
     FM201500 19010G20KT P6SM BKN040=



000
FTUS41 KPBZ 200100 AAA
TAFPIT
TAF AMD
KPIT 200119Z 2001/2106 15008KT P6SM BKN045
     FM201500 19010G20KT P6SM BKN040=



000
FTUS41 KPBZ 200100 AAA
TAFHLG
TAF AMD
KHLG 200118Z 2001/2024 12008KT P6SM BKN045
     FM201500 18010G20KT P6SM BKN040=



000
FTUS41 KPBZ 200000 AAA
TAFLBE
TAF AMD
KLBE 200014Z 2000/2024 14008G18KT P6SM BKN045
     FM201500 18010G20KT P6SM BKN040=



000
FTUS41 KPBZ 192300
TAFHLG
TAF
KHLG 192320Z 2000/2024 14006KT P6SM BKN050
     FM201500 18010G20KT P6SM BKN040=



000
FTUS41 KPBZ 192300
TAFLBE
TAF
KLBE 192320Z 2000/2024 15007KT P6SM BKN050
     FM201500 18010G20KT P6SM BKN040=



000
FTUS41 KPBZ 192300
TAFAGC
TAF
KAGC 192320Z 2000/2024 15007KT P6SM BKN050
     FM201500 18010G20KT P6SM BKN040=



000
FTUS41 KPBZ 192300
TAFPIT
TAF
KPIT 192320Z 2000/2106 16006KT P6SM BKN050
     FM201500 19010G20KT P6SM BKN040=



000
FTUS41 KPBZ 192300
TAFMGW
TAF
KMGW 192320Z 2000/2024 15006KT P6SM BKN050
     FM200200 15006KT P6SM SCT050
     FM201500 18010G20KT P6SM BKN040=



000
FTUS41 KPBZ 192300
TAFZZV
TAF
KZZV 192320Z 2000/2024 14005KT P6SM SCT060
     FM201500 20009G18KT P6SM SCT040=



000
FTUS41 KPBZ 192300
TAFDUJ
TAF
KDUJ 192320Z 2000/2024 15008KT P6SM BKN045
     FM200900 17006KT P6SM BKN012
     FM201500 18010G20KT P6SM BKN040=



000
FTUS41 KPBZ 192300
TAFBVI
TAF
KBVI 192320Z 2000/2024 15006KT P6SM BKN050
     FM201500 18010G20KT P6SM BKN040
      AMD NOT SKED 2001/2011=



000
FTUS41 KPBZ 192100 AAA
TAFDUJ
TAF AMD
KDUJ 192101Z 1921/2018 13008KT P6SM BKN050
     FM200200 16006KT P6SM SCT040
     FM201500 18010G20KT P6SM BKN040=



000
FTUS41 KPBZ 192100 AAA
TAFLBE
TAF AMD
KLBE 192100Z 1921/2018 14008G16KT P6SM BKN045
     FM200200 16006KT P6SM SCT050
     FM201500 18010G20KT P6SM BKN040=



000
FTUS41 KPBZ 192100 AAA
TAFMGW
TAF AMD
KMGW 192100Z 1921/2018 12008KT P6SM BKN045
     FM200200 15006KT P6SM SCT050
     FM201500 18010G20KT P6SM BKN040=



000
FTUS41 KPBZ 192000 AAA
TAFAGC
TAF AMD
KAGC 192059Z 1921/2018 13008KT P6SM BKN050
     FM200200 16006KT P6SM SCT050
     FM201500 18010G20KT P6SM BKN040=



000
FTUS41 KPBZ 192000 AAA
TAFBVI
TAF AMD
KBVI 192059Z 1921/2018 13006KT P6SM BKN050
     FM200200 16005KT P6SM SCT050
     FM201500 18010G20KT P6SM BKN040=



000
FTUS41 KPBZ 192000 AAB
TAFPIT
TAF AMD
KPIT 192058Z 1921/2024 13008KT P6SM BKN050
     FM200200 16006KT P6SM SCT050
     FM201500 18010G20KT P6SM BKN040=



000
FTUS41 KPBZ 191900 AAA
TAFPIT
TAF AMD
KPIT 191907Z 1919/2024 13008G16KT P6SM SCT040
     FM192300 14005KT P6SM SKC
     FM201500 20009G16KT P6SM SCT050=



000
FTUS41 KPBZ 191700
TAFZZV
TAF
KZZV 191730Z 1918/2018 12005KT P6SM SKC
     FM201500 20009G18KT P6SM SCT050=



000
FTUS41 KPBZ 191700
TAFPIT
TAF
KPIT 191730Z 1918/2024 12003KT P6SM FEW040
     FM201500 20009G16KT P6SM SCT050=



000
FTUS41 KPBZ 191700
TAFHLG
TAF
KHLG 191730Z 1918/2018 10005KT P6SM FEW040
     FM201500 20009G16KT P6SM SCT050=



000
FTUS41 KPBZ 191700
TAFAGC
TAF
KAGC 191730Z 1918/2018 12006KT P6SM FEW040
     FM201500 20009G16KT P6SM SCT050=



000
FTUS41 KPBZ 191700
TAFMGW
TAF
KMGW 191730Z 1918/2018 13005KT P6SM SCT050
     FM201500 20009G16KT P6SM SCT050=



000
FTUS41 KPBZ 191700
TAFLBE
TAF
KLBE 191730Z 1918/2018 12008KT P6SM SCT050
     FM201500 20010KT P6SM SCT050=



000
FTUS41 KPBZ 191700
TAFDUJ
TAF
KDUJ 191730Z 1918/2018 12006KT P6SM FEW040
     FM201500 20009G16KT P6SM SCT050=



000
FTUS41 KPBZ 191700
TAFBVI
TAF
KBVI 191730Z 1918/2018 11003KT P6SM FEW040
     FM201500 20009G16KT P6SM SCT050=



000
FTUS41 KPBZ 191400 AAA
TAFPIT
TAF AMD
KPIT 191455Z 1915/2018 11003KT P6SM SCT050=



000
FTUS41 KPBZ 191400 AAB
TAFDUJ
TAF AMD
KDUJ 191400Z 1914/2012 10005KT P6SM SKC
      TEMPO 1914/1915 BKN004
     FM191700 13006KT P6SM BKN050=



000
FTUS41 KPBZ 191200 AAA
TAFDUJ
TAF AMD
KDUJ 191223Z 1912/2012 10005KT P6SM SKC
      TEMPO 1912/1914 1/4SM FG BKN002
     FM191400 13006KT P6SM BKN050=



000
FTUS41 KPBZ 191100
TAFDUJ
TAF
KDUJ 191122Z 1912/2012 10005KT P6SM SKC
      TEMPO 1912/1914 2SM BR
     FM191400 13006KT P6SM BKN050=



000
FTUS41 KPBZ 191100
TAFBVI
TAF
KBVI 191122Z 1912/2012 12003KT P6SM SCT050=



000
FTUS41 KPBZ 191100
TAFAGC
TAF
KAGC 191122Z 1912/2012 13003KT P6SM SCT050=



000
FTUS41 KPBZ 191100
TAFZZV
TAF
KZZV 191122Z 1912/2012 VRB03KT 5SM BR SKC
     FM191300 13005KT P6SM SCT050=



000
FTUS41 KPBZ 191100
TAFLBE
TAF
KLBE 191122Z 1912/2012 14003KT P6SM SCT050=



000
FTUS41 KPBZ 191100
TAFMGW
TAF
KMGW 191122Z 1912/2012 VRB03KT 5SM BR SCT050
     FM191300 13005KT P6SM SCT050=



000
FTUS41 KPBZ 191100
TAFHLG
TAF
KHLG 191122Z 1912/2012 13005KT P6SM SCT050=



000
FTUS41 KPBZ 191100
TAFPIT
TAF
KPIT 191122Z 1912/2018 12003KT P6SM SCT050=



000
FTUS41 KPBZ 191000 AAB
TAFDUJ
TAF AMD
KDUJ 191035Z 1911/2006 08005KT 1 1/2SM BR SCT002
     FM191300 14006KT P6SM BKN050
     FM191400 14005KT P6SM SKC=



000
FTUS41 KPBZ 191000 AAA
TAFMGW
TAF AMD
KMGW 191035Z 1911/2006 36003KT 6SM BR BKN070
     FM191400 09005KT P6SM SCT050=



000
FTUS41 KPBZ 190900 AAA
TAFPIT
TAF AMD
KPIT 190957Z 1910/2012 13004KT P6SM SCT060=



000
FTUS41 KPBZ 190800 AAA
TAFDUJ
TAF AMD
KDUJ 190829Z 1908/2006 01005KT P6SM SCT060
     FM191000 VRB03KT 2SM BR SCT002
     FM191400 14005KT P6SM SKC=



000
FTUS41 KPBZ 190500
TAFHLG
TAF
KHLG 190525Z 1906/2006 05005KT P6SM SCT060
     FM191400 12005KT P6SM SKC=



000
FTUS41 KPBZ 190500
TAFZZV
TAF
KZZV 190525Z 1906/2006 05005KT P6SM SCT060
     FM191500 08005KT P6SM SKC=



000
FTUS41 KPBZ 190500
TAFDUJ
TAF
KDUJ 190525Z 1906/2006 01005KT P6SM SCT060
     FM190800 VRB03KT 2SM BR SCT002
     FM191400 14005KT P6SM SKC=



000
FTUS41 KPBZ 190500
TAFMGW
TAF
KMGW 190525Z 1906/2006 03005KT P6SM SCT060
     FM190900 00000KT 2SM BR SCT002
     FM191400 09005KT P6SM SKC=



000
FTUS41 KPBZ 190500
TAFAGC
TAF
KAGC 190525Z 1906/2006 04005KT P6SM SCT060
     FM191500 12005KT P6SM SKC=



000
FTUS41 KPBZ 190500
TAFLBE
TAF
KLBE 190525Z 1906/2006 VRB03KT 3SM BR SCT060
     FM191400 12005KT P6SM SKC=



000
FTUS41 KPBZ 190500
TAFBVI
TAF
KBVI 190525Z 1906/2006 02005KT P6SM SCT060
     FM191500 12005KT P6SM SKC
      AMD NOT SKED=



000
FTUS41 KPBZ 190500
TAFPIT
TAF
KPIT 190525Z 1906/2012 02008KT P6SM SCT060
     FM191500 12005KT P6SM SKC=



000
FTUS41 KPBZ 190200 AAA
TAFPIT
TAF AMD
KPIT 190235Z 1903/2006 02008KT P6SM SCT060
     FM191500 12005KT P6SM SKC=



000
FTUS41 KPBZ 182300
TAFDUJ
TAF
KDUJ 182340Z 1900/1924 01005KT P6SM SCT060
     FM191500 14005KT P6SM SKC=



000
FTUS41 KPBZ 182300
TAFLBE
TAF
KLBE 182340Z 1900/1924 VRB03KT P6SM SCT060
     FM191500 12005KT P6SM SKC=



000
FTUS41 KPBZ 182300
TAFPIT
TAF
KPIT 182340Z 1900/2006 04005KT P6SM SCT060
     FM191500 12005KT P6SM SKC=



000
FTUS41 KPBZ 182300
TAFHLG
TAF
KHLG 182340Z 1900/1924 05005KT P6SM SCT060
     FM190900 VRB03KT 2SM BR SKC
     FM191400 12005KT P6SM SKC=



000
FTUS41 KPBZ 182300
TAFZZV
TAF
KZZV 182340Z 1900/1924 05005KT P6SM SCT060
     FM191500 08005KT P6SM SKC=



000
FTUS41 KPBZ 182300
TAFMGW
TAF
KMGW 182340Z 1900/1924 03005KT P6SM SCT060
     FM190900 00000KT 2SM BR SCT002
     FM191400 09005KT P6SM SKC=



000
FTUS41 KPBZ 182300
TAFAGC
TAF
KAGC 182340Z 1900/1924 04005KT P6SM SCT060
     FM191500 12005KT P6SM SKC=



000
FTUS41 KPBZ 182300
TAFBVI
TAF
KBVI 182340Z 1900/1924 02005KT P6SM SCT060
     FM191500 12005KT P6SM SKC
      AMD NOT SKED 1901/1911=



000
FTUS41 KPBZ 182100 AAA
TAFPIT
TAF AMD
KPIT 182152Z 1822/1924 36005KT P6SM SCT060
     FM190200 02006KT P6SM SCT250=



000
FTUS41 KPBZ 181700
TAFZZV
TAF
KZZV 181723Z 1818/1918 03008KT P6SM BKN040
     FM190200 05006KT P6SM SCT250=



000
FTUS41 KPBZ 181700
TAFHLG
TAF
KHLG 181723Z 1818/1918 03008KT P6SM BKN040
     FM190200 05006KT P6SM SCT250=



000
FTUS41 KPBZ 181700
TAFMGW
TAF
KMGW 181723Z 1818/1918 35009KT P6SM BKN040
     FM190200 02006KT P6SM SCT250=



000
FTUS41 KPBZ 181700
TAFDUJ
TAF
KDUJ 181723Z 1818/1918 01006KT P6SM BKN040
     FM190300 04006KT P6SM SCT250=



000
FTUS41 KPBZ 181700
TAFLBE
TAF
KLBE 181723Z 1818/1918 34006KT P6SM BKN040
     FM190200 02006KT P6SM SCT250=



000
FTUS41 KPBZ 181700
TAFPIT
TAF
KPIT 181723Z 1818/1924 35008KT P6SM BKN040
     FM190200 02006KT P6SM SCT250=



000
FTUS41 KPBZ 181700
TAFBVI
TAF
KBVI 181723Z 1818/1918 34006KT P6SM BKN040
     FM190200 02006KT P6SM SCT250=



000
FTUS41 KPBZ 181700
TAFAGC
TAF
KAGC 181723Z 1818/1918 34006KT P6SM BKN040
     FM190200 02006KT P6SM SCT250=



    US Dept of Commerce
    National Oceanic and Atmospheric Administration
    National Weather Service
    1325 East West Highway
    Silver Spring, MD 20910
    Page Author: NWS Internet Services Team
Disclaimer
Information Quality
Credits
Glossary
Privacy Policy
Freedom of Information Act (FOIA)
About Us
Career Opportunities